Time;durP1;ratioP1;P1;durP2;ratioP2;P2;SDS_P1;SDS_P2;PMS_P1;PMS_P2;Temp;Humidity;BMP_temperature;BMP_pressure;BME280_temperature;BME280_humidity;BME280_pressure;Samples;Min_cycle;Max_cycle;Signal;HPM_P1;HPM_P2
2022/08/30 00:01:03;;;;;;;13.48;4.45;;;;;;;20.10;52.45;101502.09;5094499;28;20405;-58
2022/08/30 00:03:19;;;;;;;11.90;4.50;;;;;;;20.06;52.53;101507.03;5093871;28;20512;-56
2022/08/30 00:05:46;;;;;;;13.90;4.65;;;;;;;20.07;52.54;101499.81;5094057;28;20083;-57
2022/08/30 00:08:14;;;;;;;15.63;4.75;;;;;;;20.02;53.00;101495.00;5094359;28;20048;-56
2022/08/30 00:10:41;;;;;;;13.13;3.97;;;;;;;20.05;53.51;101499.19;5094141;28;20130;-57
2022/08/30 00:13:11;;;;;;;12.65;4.10;;;;;;;20.02;53.54;101500.41;5094219;28;20047;-57
2022/08/30 00:15:39;;;;;;;15.80;4.57;;;;;;;19.98;53.52;101496.44;5094400;28;20051;-58
2022/08/30 00:18:06;;;;;;;14.65;4.65;;;;;;;20.03;53.67;101498.53;5094375;28;20044;-57
2022/08/30 00:20:35;;;;;;;12.90;4.13;;;;;;;19.90;54.30;101493.91;5093725;28;20070;-57
2022/08/30 00:23:03;;;;;;;15.57;4.45;;;;;;;19.95;54.53;101488.75;5056304;28;21124;-57
2022/08/30 00:25:30;;;;;;;16.85;5.43;;;;;;;19.98;54.29;101493.75;5093956;28;20097;-56
2022/08/30 00:27:57;;;;;;;13.80;4.65;;;;;;;20.07;54.51;101499.81;5094165;28;20136;-57
2022/08/30 00:30:24;;;;;;;10.63;4.53;;;;;;;20.06;55.09;101495.44;5093528;28;20048;-57
2022/08/30 00:32:50;;;;;;;14.07;4.55;;;;;;;20.03;54.99;101496.69;5093663;28;20539;-57
2022/08/30 00:35:19;;;;;;;12.95;4.68;;;;;;;20.07;55.23;101494.44;5093692;28;20443;-56
2022/08/30 00:37:47;;;;;;;15.77;4.25;;;;;;;20.05;55.04;101504.56;5076322;28;20036;-56
2022/08/30 00:40:14;;;;;;;12.13;4.50;;;;;;;20.10;55.72;101510.19;5093978;28;20086;-57
2022/08/30 00:42:42;;;;;;;18.17;4.72;;;;;;;20.06;55.52;101506.22;5094036;28;20040;-56
2022/08/30 00:45:15;;;;;;;14.10;4.53;;;;;;;20.00;55.29;101498.94;5093411;28;20048;-56
2022/08/30 00:47:43;;;;;;;16.38;4.65;;;;;;;19.97;55.20;101502.84;5093833;28;20048;-56
2022/08/30 00:50:12;;;;;;;12.07;4.70;;;;;;;19.98;55.76;101501.84;5093774;28;20044;-56
2022/08/30 00:52:43;;;;;;;15.00;5.20;;;;;;;20.02;55.82;101505.78;5093843;28;20040;-56
2022/08/30 00:55:13;;;;;;;15.40;4.50;;;;;;;20.04;56.07;101513.66;5093361;28;20102;-57
2022/08/30 00:57:43;;;;;;;14.93;5.18;;;;;;;19.91;56.02;101523.31;5093840;28;20101;-57
2022/08/30 01:00:11;;;;;;;14.10;5.43;;;;;;;19.98;56.48;101522.56;5091556;28;20040;-57
2022/08/30 01:02:38;;;;;;;15.48;4.60;;;;;;;19.93;56.35;101513.19;5093785;28;20210;-57
2022/08/30 01:05:09;;;;;;;11.52;4.20;;;;;;;19.87;56.20;101526.63;5093274;28;20040;-57
2022/08/30 01:07:38;;;;;;;16.15;4.25;;;;;;;19.77;56.12;101523.44;5093469;28;20040;-57
2022/08/30 01:10:08;;;;;;;15.07;4.80;;;;;;;19.75;56.45;101523.63;5093394;28;20104;-57
2022/08/30 01:12:37;;;;;;;12.98;4.78;;;;;;;19.77;56.92;101529.63;5093268;28;20093;-57
2022/08/30 01:15:05;;;;;;;22.38;4.68;;;;;;;19.65;56.53;101521.25;5093475;28;20090;-57
2022/08/30 01:17:33;;;;;;;15.45;4.85;;;;;;;19.65;56.88;101533.88;5093455;28;20048;-57
2022/08/30 01:20:04;;;;;;;11.07;4.43;;;;;;;19.62;56.79;101526.19;5093483;28;20079;-57
2022/08/30 01:22:54;;;;;;;12.93;4.22;;;;;;;19.64;57.36;101526.81;5062343;28;21106;-57
2022/08/30 01:25:24;;;;;;;19.40;4.75;;;;;;;19.65;57.23;101528.50;5093220;28;20131;-57
2022/08/30 01:28:00;;;;;;;14.90;4.70;;;;;;;19.62;57.69;101534.25;5093268;28;20148;-57
2022/08/30 01:30:28;;;;;;;19.73;4.68;;;;;;;19.54;57.48;101537.94;5093368;28;20125;-57
2022/08/30 01:32:59;;;;;;;10.98;4.43;;;;;;;19.56;57.67;101531.31;5094981;28;20040;-57
2022/08/30 01:35:28;;;;;;;12.63;4.30;;;;;;;19.59;57.66;101527.38;5095480;28;20040;-57
2022/08/30 01:37:55;;;;;;;20.38;5.00;;;;;;;19.50;57.39;101521.34;5097151;28;20040;-57
2022/08/30 01:40:21;;;;;;;10.00;4.40;;;;;;;19.43;57.72;101528.53;5097294;28;20055;-57
2022/08/30 01:42:48;;;;;;;15.05;4.30;;;;;;;19.47;57.87;101528.97;5097226;28;20048;-57
2022/08/30 01:45:16;;;;;;;16.40;4.53;;;;;;;19.58;57.58;101530.31;5097280;28;20383;-57
2022/08/30 01:47:43;;;;;;;14.30;4.70;;;;;;;19.52;58.06;101527.34;5097606;28;20052;-57
2022/08/30 01:50:10;;;;;;;16.38;4.60;;;;;;;19.57;57.35;101529.44;5097109;28;20044;-57
2022/08/30 01:52:37;;;;;;;15.30;4.15;;;;;;;19.65;57.88;101528.50;5096176;28;20051;-57
2022/08/30 01:55:05;;;;;;;17.40;4.80;;;;;;;19.57;57.42;101526.75;5096978;28;20097;-57
2022/08/30 01:57:32;;;;;;;16.20;4.32;;;;;;;19.55;57.50;101529.69;5097005;28;20044;-57
2022/08/30 01:59:59;;;;;;;17.35;4.82;;;;;;;19.49;57.86;101533.13;5096624;28;20048;-57
2022/08/30 02:02:28;;;;;;;15.70;4.72;;;;;;;19.50;57.76;101536.63;5097008;28;20440;-57
2022/08/30 02:04:56;;;;;;;14.10;4.50;;;;;;;19.55;57.31;101539.56;5096104;28;20048;-57
2022/08/30 02:07:23;;;;;;;11.93;4.38;;;;;;;19.55;57.96;101532.38;5096952;28;20547;-57
2022/08/30 02:09:52;;;;;;;16.52;4.30;;;;;;;19.44;57.90;101534.72;5096424;28;20037;-57
2022/08/30 02:12:19;;;;;;;12.10;4.50;;;;;;;19.45;58.02;101531.03;5096805;28;20401;-57
2022/08/30 02:14:46;;;;;;;14.52;4.32;;;;;;;19.45;58.02;101534.53;5096616;28;20044;-57
2022/08/30 02:17:14;;;;;;;16.85;4.05;;;;;;;19.44;58.34;101527.47;5096665;28;20120;-57
2022/08/30 02:19:42;;;;;;;17.90;4.63;;;;;;;19.47;58.04;101529.78;5096679;28;20481;-57
2022/08/30 02:22:08;;;;;;;18.23;4.63;;;;;;;19.48;58.22;101527.94;5096357;28;20405;-57
2022/08/30 02:24:35;;;;;;;12.27;4.63;;;;;;;19.42;58.76;101523.34;5058378;28;20127;-57
2022/08/30 02:27:02;;;;;;;15.07;4.72;;;;;;;19.42;58.38;101529.53;5096488;28;20130;-57
2022/08/30 02:29:30;;;;;;;15.25;4.65;;;;;;;19.40;58.41;101534.28;5096386;28;20047;-57
2022/08/30 02:31:56;;;;;;;14.90;4.40;;;;;;;19.41;58.24;101530.59;5096235;28;20047;-57
2022/08/30 02:34:23;;;;;;;15.73;4.28;;;;;;;19.47;58.73;101531.66;5095609;28;20068;-57
2022/08/30 02:36:50;;;;;;;15.98;4.50;;;;;;;19.38;58.85;101530.97;5095923;28;20139;-57
2022/08/30 02:39:17;;;;;;;13.73;4.63;;;;;;;19.34;58.94;101530.50;5096316;28;20109;-57
2022/08/30 02:41:44;;;;;;;17.42;5.25;;;;;;;19.40;58.69;101525.38;5095856;28;20402;-57
2022/08/30 02:44:10;;;;;;;13.88;4.82;;;;;;;19.43;58.76;101523.16;5094826;28;20500;-57
2022/08/30 02:46:38;;;;;;;15.30;4.68;;;;;;;19.41;59.23;101518.97;5095959;28;20516;-57
2022/08/30 02:49:07;;;;;;;14.70;4.80;;;;;;;19.40;58.77;101525.38;5096109;28;20047;-57
2022/08/30 02:51:49;;;;;;;15.07;4.95;;;;;;;19.34;59.02;101522.44;5095664;28;20420;-57
2022/08/30 02:54:18;;;;;;;16.55;5.13;;;;;;;19.24;59.54;101515.72;5095748;28;20478;-57
2022/08/30 02:56:48;;;;;;;13.52;5.07;;;;;;;19.29;59.58;101510.59;5095781;28;20043;-57
2022/08/30 02:59:16;;;;;;;17.48;5.10;;;;;;;19.26;59.97;101510.97;5096000;28;20509;-57
2022/08/30 03:01:43;;;;;;;15.73;4.55;;;;;;;19.29;59.41;101516.81;5095649;28;20040;-57
2022/08/30 03:04:09;;;;;;;13.75;5.38;;;;;;;19.23;59.57;101504.13;5095409;28;20089;-57
2022/08/30 03:06:36;;;;;;;16.58;4.90;;;;;;;19.18;59.70;101504.69;5095505;28;20508;-57
2022/08/30 03:09:03;;;;;;;13.35;4.65;;;;;;;19.25;59.49;101506.63;5095620;28;20051;-57
2022/08/30 03:11:30;;;;;;;10.40;4.68;;;;;;;19.30;59.32;101499.66;5094007;28;20059;-57
2022/08/30 03:13:57;;;;;;;11.68;4.55;;;;;;;19.18;59.90;101502.00;5095242;28;20097;-57
2022/08/30 03:16:24;;;;;;;17.27;4.90;;;;;;;19.14;59.99;101505.28;5095624;28;20565;-57
2022/08/30 03:18:50;;;;;;;18.90;5.15;;;;;;;19.07;60.12;101505.22;5095284;28;20044;-57
2022/08/30 03:21:17;;;;;;;17.00;4.97;;;;;;;19.02;60.22;101507.63;5095170;28;20444;-57
2022/08/30 03:23:44;;;;;;;14.63;4.90;;;;;;;18.95;60.52;101504.06;5057188;28;20047;-57
2022/08/30 03:26:13;;;;;;;15.15;4.72;;;;;;;18.97;60.53;101504.69;5095314;28;20417;-57
2022/08/30 03:28:42;;;;;;;14.45;5.32;;;;;;;19.06;60.09;101502.72;5094938;28;20040;-57
2022/08/30 03:31:08;;;;;;;12.15;4.80;;;;;;;19.04;60.17;101505.59;5094630;28;20044;-57
2022/08/30 03:33:36;;;;;;;13.25;4.60;;;;;;;19.03;60.43;101505.78;5094939;28;20036;-57
2022/08/30 03:36:04;;;;;;;19.90;5.20;;;;;;;19.03;60.64;101503.09;5095285;28;20071;-57
2022/08/30 03:38:31;;;;;;;16.58;5.15;;;;;;;18.95;60.57;101506.75;5095081;28;20044;-57
2022/08/30 03:40:57;;;;;;;15.75;4.45;;;;;;;18.94;60.88;101503.22;5095516;28;20113;-57
2022/08/30 03:43:24;;;;;;;18.48;5.25;;;;;;;18.96;61.03;101503.03;5094622;28;20032;-57
2022/08/30 03:45:51;;;;;;;16.48;4.95;;;;;;;18.85;61.27;101496.31;5094949;28;20078;-57
2022/08/30 03:48:18;;;;;;;11.68;4.75;;;;;;;18.90;61.22;101495.72;5080577;28;20055;-57
2022/08/30 03:50:44;;;;;;;15.18;4.82;;;;;;;18.85;61.49;101496.31;5074344;28;20040;-57
2022/08/30 03:53:11;;;;;;;16.23;5.03;;;;;;;18.83;61.42;101486.75;5074537;28;20052;-59
2022/08/30 03:55:38;;;;;;;18.77;5.13;;;;;;;18.86;61.42;101491.75;5072215;28;20040;-57
2022/08/30 03:58:06;;;;;;;14.48;4.82;;;;;;;18.76;61.68;101494.72;5073246;28;20049;-57
2022/08/30 04:00:33;;;;;;;12.93;5.00;;;;;;;18.81;61.77;101495.03;5074361;28;20486;-57
2022/08/30 04:02:59;;;;;;;15.63;5.13;;;;;;;18.75;61.75;101496.56;5073971;28;20067;-57
2022/08/30 04:05:26;;;;;;;14.45;5.10;;;;;;;18.80;61.77;101493.31;5073513;28;20512;-57
2022/08/30 04:07:53;;;;;;;13.93;4.60;;;;;;;18.77;61.80;101502.59;5073911;28;20086;-57
2022/08/30 04:10:20;;;;;;;16.90;5.28;;;;;;;18.80;62.06;101502.22;5073707;28;20076;-58
2022/08/30 04:12:49;;;;;;;17.38;5.40;;;;;;;18.78;62.03;101498.88;5073799;28;20044;-57
2022/08/30 04:15:18;;;;;;;18.52;5.82;;;;;;;18.66;62.51;101499.56;5074057;28;20048;-57
2022/08/30 04:17:45;;;;;;;20.80;5.70;;;;;;;18.64;62.32;101505.13;5074067;28;20094;-57
2022/08/30 04:20:12;;;;;;;15.90;5.20;;;;;;;18.65;62.38;101509.50;5073758;28;20045;-57
2022/08/30 04:22:39;;;;;;;12.65;5.20;;;;;;;18.73;62.56;101512.06;5057246;28;20090;-57
2022/08/30 04:25:07;;;;;;;14.40;5.10;;;;;;;18.79;62.12;101513.16;5054935;28;20040;-57
2022/08/30 04:27:33;;;;;;;14.07;5.40;;;;;;;18.76;62.83;101511.69;5073644;28;20444;-57
2022/08/30 04:30:00;;;;;;;16.52;5.70;;;;;;;18.83;62.29;101514.50;5089595;28;20107;-57
2022/08/30 04:32:27;;;;;;;15.90;5.25;;;;;;;18.87;62.48;101517.63;5072690;28;20383;-57
2022/08/30 04:34:57;;;;;;;15.85;5.45;;;;;;;18.81;62.56;101511.16;5073526;28;20036;-57
2022/08/30 04:37:24;;;;;;;17.20;5.80;;;;;;;18.76;62.10;101513.53;5073759;28;20048;-57
2022/08/30 04:39:56;;;;;;;17.30;5.30;;;;;;;18.69;62.28;101516.16;5073805;28;20516;-57
2022/08/30 04:42:23;;;;;;;17.55;5.50;;;;;;;18.57;62.85;101512.28;5073631;28;20132;-57
2022/08/30 04:44:50;;;;;;;15.73;5.35;;;;;;;18.53;63.13;101508.31;5072433;28;20101;-57
2022/08/30 04:47:17;;;;;;;17.42;5.90;;;;;;;18.55;63.25;101507.09;5073206;28;20106;-57
2022/08/30 04:49:44;;;;;;;14.90;5.43;;;;;;;18.54;63.06;101513.50;5073569;28;20379;-57
2022/08/30 04:52:10;;;;;;;14.25;5.22;;;;;;;18.56;63.35;101516.81;5073498;28;20552;-57
2022/08/30 04:54:38;;;;;;;16.02;5.32;;;;;;;18.60;62.98;101519.97;5073441;28;20064;-57
2022/08/30 04:57:05;;;;;;;17.42;6.15;;;;;;;18.59;63.78;101523.66;5073341;28;20055;-57
2022/08/30 04:59:33;;;;;;;14.13;5.68;;;;;;;18.52;63.52;101528.13;5073526;28;20052;-57
2022/08/30 05:02:00;;;;;;;15.55;5.30;;;;;;;18.50;63.19;101524.78;5073354;28;20067;-57
2022/08/30 05:04:26;;;;;;;13.73;5.68;;;;;;;18.49;63.27;101525.81;5072956;28;20482;-57
2022/08/30 05:06:53;;;;;;;15.93;5.90;;;;;;;18.41;63.57;101532.97;5072791;28;20045;-57
2022/08/30 05:09:20;;;;;;;20.45;5.95;;;;;;;18.33;63.52;101533.06;5073251;28;20056;-57
2022/08/30 05:11:47;;;;;;;15.15;5.60;;;;;;;18.33;63.74;101538.41;5088325;28;20405;-57
2022/08/30 05:14:14;;;;;;;16.50;5.70;;;;;;;18.38;64.02;101538.69;5073249;28;20068;-57
2022/08/30 05:16:41;;;;;;;20.10;5.63;;;;;;;18.41;63.81;101537.50;5073217;28;20072;-57
2022/08/30 05:19:08;;;;;;;12.95;5.45;;;;;;;18.39;63.99;101535.00;5072825;28;20067;-57
2022/08/30 05:21:35;;;;;;;21.52;5.70;;;;;;;18.45;63.59;101538.81;5073016;28;20529;-57
2022/08/30 05:24:02;;;;;;;23.90;6.00;;;;;;;18.42;63.78;101539.16;5035572;28;20060;-57
2022/08/30 05:26:32;;;;;;;15.57;5.75;;;;;;;18.48;63.68;101542.94;5073253;28;20048;-57
2022/08/30 05:29:00;;;;;;;18.48;5.65;;;;;;;18.54;63.42;101544.91;5072607;28;20040;-58
2022/08/30 05:31:31;;;;;;;13.73;6.13;;;;;;;18.48;63.56;101545.63;5071894;28;20044;-59
2022/08/30 05:33:58;;;;;;;20.23;6.13;;;;;;;18.42;63.78;101545.34;5072362;28;20051;-57
2022/08/30 05:36:28;;;;;;;19.90;5.65;;;;;;;18.45;63.51;101552.22;5072737;28;20075;-57
2022/08/30 05:38:55;;;;;;;14.82;5.78;;;;;;;18.52;63.10;101552.31;5072344;28;20045;-57
2022/08/30 05:41:24;;;;;;;15.98;5.93;;;;;;;18.50;63.50;101555.19;5071471;28;20086;-57
2022/08/30 05:43:52;;;;;;;17.13;5.38;;;;;;;18.54;63.39;101553.78;5072180;28;20063;-57
2022/08/30 05:46:20;;;;;;;17.70;5.70;;;;;;;18.61;63.25;101556.56;5072560;28;20074;-58
2022/08/30 05:48:47;;;;;;;22.73;6.55;;;;;;;18.56;63.14;101551.75;5093875;28;20039;-57
2022/08/30 05:51:19;;;;;;;19.38;6.03;;;;;;;18.57;63.33;101549.88;5112593;28;20430;-57
2022/08/30 05:53:47;;;;;;;20.75;6.50;;;;;;;18.66;63.23;101546.06;5093750;28;20075;-57
2022/08/30 05:56:17;;;;;;;16.50;6.30;;;;;;;18.65;63.18;101551.66;5112305;28;20040;-58
2022/08/30 05:58:44;;;;;;;22.05;6.00;;;;;;;18.65;63.04;101547.13;5111413;28;20457;-58
2022/08/30 06:01:30;;;;;;;17.38;6.43;;;;;;;18.64;62.90;101542.75;5112947;28;20040;-57
2022/08/30 06:04:00;;;;;;;18.73;5.53;;;;;;;18.71;62.53;101543.66;5112759;28;20493;-58
2022/08/30 06:06:32;;;;;;;22.80;6.07;;;;;;;18.70;62.67;101543.84;5112929;28;20122;-57
2022/08/30 06:08:59;;;;;;;23.45;5.82;;;;;;;18.76;62.53;101541.25;5113484;28;20048;-57
2022/08/30 06:11:26;;;;;;;18.80;5.60;;;;;;;18.79;62.59;101542.72;5112656;28;20058;-57
2022/08/30 06:13:54;;;;;;;22.95;6.38;;;;;;;18.74;62.66;101540.59;5112884;28;20036;-57
2022/08/30 06:16:22;;;;;;;17.95;6.15;;;;;;;18.89;62.36;101551.34;5113077;28;20059;-57
2022/08/30 06:18:50;;;;;;;17.63;5.60;;;;;;;18.92;62.61;101547.47;5114604;28;20035;-58
2022/08/30 06:21:22;;;;;;;18.13;5.70;;;;;;;18.86;62.36;101545.53;5116606;28;20101;-58
2022/08/30 06:23:50;;;;;;;18.83;5.85;;;;;;;19.01;62.16;101549.00;5074749;28;20044;-59
2022/08/30 06:26:17;;;;;;;15.25;5.68;;;;;;;19.01;62.12;101545.47;5100123;28;20601;-59
2022/08/30 06:28:44;;;;;;;17.55;5.88;;;;;;;19.14;61.52;101549.16;5097184;28;20536;-57
2022/08/30 06:31:13;;;;;;;15.95;5.50;;;;;;;19.30;60.98;101552.59;5108441;28;20620;-59
2022/08/30 06:33:40;;;;;;;20.95;6.05;;;;;;;19.25;61.05;101546.97;5098696;28;20050;-59
2022/08/30 06:36:09;;;;;;;17.95;5.90;;;;;;;19.27;60.76;101544.94;5082153;28;20071;-59
2022/08/30 06:38:38;;;;;;;16.73;5.72;;;;;;;19.31;60.67;101555.09;5086931;28;20049;-59
2022/08/30 06:41:06;;;;;;;19.15;5.45;;;;;;;19.35;60.61;101553.69;5098272;28;20047;-59
2022/08/30 06:43:33;;;;;;;20.92;5.75;;;;;;;19.41;60.35;101554.78;5115732;28;20051;-59
2022/08/30 06:46:05;;;;;;;22.15;5.72;;;;;;;19.55;60.38;101545.81;5108135;28;20039;-59
2022/08/30 06:48:32;;;;;;;16.08;5.95;;;;;;;19.54;60.09;101541.44;5098212;28;20401;-59
2022/08/30 06:50:59;;;;;;;17.02;5.57;;;;;;;19.53;60.02;101538.94;5110782;28;20184;-59
2022/08/30 06:53:28;;;;;;;17.65;5.55;;;;;;;19.51;60.43;101541.81;5108104;28;20062;-59
2022/08/30 06:55:57;;;;;;;11.55;5.45;;;;;;;19.56;60.26;101543.94;5102768;27;20093;-58
2022/08/30 06:58:24;;;;;;;19.42;5.35;;;;;;;19.65;60.00;101545.47;5106196;28;20047;-59
2022/08/30 07:00:51;;;;;;;22.20;6.28;;;;;;;19.73;59.90;101542.66;5100307;28;20077;-59
2022/08/30 07:03:18;;;;;;;15.80;5.80;;;;;;;19.74;59.58;101540.81;5107553;28;20052;-60
2022/08/30 07:05:48;;;;;;;15.82;5.68;;;;;;;19.85;59.70;101545.66;5106163;28;20097;-59
2022/08/30 07:08:15;;;;;;;13.50;5.47;;;;;;;19.94;59.21;101549.03;5093239;28;20055;-59
2022/08/30 07:10:42;;;;;;;14.82;5.15;;;;;;;20.01;58.99;101551.75;5109198;27;20067;-59
2022/08/30 07:13:09;;;;;;;16.35;5.43;;;;;;;20.19;58.11;101545.88;5102640;28;20044;-59
2022/08/30 07:15:40;;;;;;;15.57;5.75;;;;;;;20.24;57.84;101549.63;5097296;28;20544;-59
2022/08/30 07:20:56;;;;;;;18.30;5.78;;;;;;;20.39;57.89;101549.53;5101027;28;20051;-54
2022/08/30 07:23:23;;;;;;;14.70;5.90;;;;;;;20.45;57.15;101545.19;4979263;28;20043;-57
2022/08/30 07:25:49;;;;;;;15.98;5.47;;;;;;;20.56;57.71;101547.31;5108448;28;20054;-56
2022/08/30 07:28:16;;;;;;;17.38;5.38;;;;;;;20.58;57.60;101553.34;5107312;27;20097;-56
2022/08/30 07:30:43;;;;;;;14.98;4.95;;;;;;;20.64;57.97;101547.16;5094797;28;20138;-57
2022/08/30 07:33:10;;;;;;;19.17;5.38;;;;;;;20.68;56.86;101550.28;5100550;28;20075;-57
2022/08/30 07:35:36;;;;;;;14.65;5.68;;;;;;;20.74;56.81;101554.03;5096288;28;20044;-57
2022/08/30 07:38:03;;;;;;;20.48;7.45;;;;;;;20.83;56.33;101544.72;5108276;28;20052;-57
2022/08/30 07:40:30;;;;;;;14.52;5.07;;;;;;;20.91;55.72;101552.66;5097734;28;20040;-57
2022/08/30 07:43:00;;;;;;;19.75;6.35;;;;;;;21.04;55.80;101554.56;5110330;28;20043;-57
2022/08/30 07:45:27;;;;;;;22.63;8.23;;;;;;;21.20;55.74;101547.94;5102696;28;20516;-57
2022/08/30 07:47:54;;;;;;;16.02;5.65;;;;;;;21.27;55.24;101564.97;5101437;28;20067;-56
2022/08/30 07:50:21;;;;;;;19.67;5.43;;;;;;;21.31;56.38;101558.13;5110068;28;20071;-56
2022/08/30 07:52:47;;;;;;;20.25;5.00;;;;;;;21.24;54.77;101557.28;5092373;28;20099;-56
2022/08/30 07:55:15;;;;;;;21.52;5.13;;;;;;;21.17;55.25;101559.13;5093870;28;20066;-57
2022/08/30 07:57:41;;;;;;;14.25;5.07;;;;;;;21.23;56.36;101553.78;5091166;28;20055;-57
2022/08/30 08:00:09;;;;;;;13.95;5.20;;;;;;;21.26;57.90;101564.13;5094286;28;20059;-56
2022/08/30 08:02:39;;;;;;;15.93;5.13;;;;;;;21.24;58.10;101565.38;5099726;28;20043;-56
2022/08/30 08:05:09;;;;;;;18.65;5.53;;;;;;;21.25;53.66;101561.66;5091902;28;20047;-57
2022/08/30 08:07:38;;;;;;;13.13;4.93;;;;;;;21.32;55.18;101565.19;5102795;28;20058;-57
2022/08/30 08:10:05;;;;;;;13.18;5.10;;;;;;;21.37;53.53;101570.78;5104619;28;20047;-57
2022/08/30 08:12:32;;;;;;;19.83;4.80;;;;;;;21.40;56.35;101566.88;5096555;28;20040;-56
2022/08/30 08:14:58;;;;;;;14.32;4.97;;;;;;;21.45;53.99;101567.13;5092302;28;20398;-57
2022/08/30 08:17:25;;;;;;;12.88;4.75;;;;;;;21.51;53.08;101562.75;5102092;28;20047;-57
2022/08/30 08:19:52;;;;;;;11.77;4.50;;;;;;;21.61;53.66;101571.25;5101346;28;20052;-54
2022/08/30 08:22:18;;;;;;;13.98;5.07;;;;;;;21.64;52.73;101557.34;5040115;28;20052;-55
2022/08/30 08:24:46;;;;;;;13.20;4.47;;;;;;;21.79;53.93;101573.34;5049883;28;20059;-57
2022/08/30 08:27:13;;;;;;;16.85;5.03;;;;;;;21.79;52.19;101566.09;5100027;28;20083;-56
2022/08/30 08:29:40;;;;;;;17.52;4.68;;;;;;;21.95;52.54;101566.69;5103108;28;20044;-56
2022/08/30 08:32:06;;;;;;;14.20;4.70;;;;;;;21.99;53.31;101562.50;5107472;28;20055;-57
2022/08/30 08:34:35;;;;;;;13.98;5.13;;;;;;;22.12;52.80;101562.50;5096174;28;20073;-57
2022/08/30 08:37:02;;;;;;;21.45;5.05;;;;;;;22.26;52.21;101573.28;5108367;28;20047;-56
2022/08/30 08:39:28;;;;;;;13.23;4.40;;;;;;;22.25;51.83;101572.47;5101674;28;20489;-57
2022/08/30 08:42:21;;;;;;;19.08;4.45;;;;;;;22.23;52.13;101575.38;5096150;28;20047;-57
2022/08/30 08:45:04;;;;;;;16.83;4.57;;;;;;;22.36;52.06;101574.53;5111415;28;20448;-57
2022/08/30 08:47:39;;;;;;;18.95;4.60;;;;;;;22.35;51.23;101564.75;5101739;28;20044;-57
2022/08/30 08:50:12;;;;;;;17.08;4.70;;;;;;;22.43;52.05;101569.94;5091149;28;20044;-57
2022/08/30 08:53:38;;;;;;;19.83;4.50;;;;;;;22.60;52.51;101561.34;5094291;28;20051;-57
2022/08/30 08:55:48;;;;;;;19.10;4.78;;;;;;;22.68;50.03;101569.22;5094811;28;20043;-57
2022/08/30 08:58:24;;;;;;;18.10;4.70;;;;;;;22.85;49.85;101561.44;5087842;27;20052;-56
2022/08/30 09:00:52;;;;;;;17.27;4.55;;;;;;;23.03;49.60;101562.59;5075712;28;20051;-57
2022/08/30 09:03:21;;;;;;;11.50;4.35;;;;;;;23.17;48.71;101561.50;5105215;28;20059;-56
2022/08/30 09:05:49;;;;;;;14.70;4.43;;;;;;;23.40;49.06;101563.63;5103277;28;20562;-57
2022/08/30 09:08:18;;;;;;;14.52;4.32;;;;;;;23.41;47.67;101559.88;5090627;28;20037;-57
2022/08/30 09:11:05;;;;;;;12.32;4.65;;;;;;;23.42;47.66;101555.31;5105867;28;20063;-57
2022/08/30 09:13:32;;;;;;;16.63;4.43;;;;;;;23.53;47.51;101560.81;5100587;28;20048;-57
2022/08/30 09:15:59;;;;;;;17.55;4.50;;;;;;;23.50;47.30;101561.28;5092222;28;20462;-57
2022/08/30 09:18:44;;;;;;;13.50;4.78;;;;;;;23.54;47.22;101550.84;5108045;28;20550;-57
2022/08/30 09:21:13;;;;;;;14.00;4.53;;;;;;;23.70;47.03;101554.84;5111129;28;20039;-57
2022/08/30 09:24:00;;;;;;;20.73;5.75;;;;;;;23.96;46.33;101553.81;5069926;28;20164;-57
2022/08/30 09:26:32;;;;;;;28.25;10.65;;;;;;;24.05;45.74;101554.34;5107976;28;20078;-57
2022/08/30 09:28:59;;;;;;;14.80;5.63;;;;;;;24.26;45.25;101556.63;5097602;28;20051;-57
2022/08/30 09:31:30;;;;;;;15.45;5.55;;;;;;;24.07;45.17;101544.94;5103628;28;20048;-57
2022/08/30 09:34:14;;;;;;;14.13;4.97;;;;;;;24.21;45.95;101547.50;5097520;28;20040;-57
2022/08/30 09:36:49;;;;;;;13.05;4.70;;;;;;;24.41;46.27;101552.69;5107529;28;20051;-57
2022/08/30 09:39:19;;;;;;;16.40;4.22;;;;;;;24.41;44.80;101550.81;5099195;28;20047;-57
2022/08/30 09:41:48;;;;;;;15.40;4.90;;;;;;;24.44;44.17;101557.69;5107207;28;20145;-57
2022/08/30 09:44:22;;;;;;;15.23;4.50;;;;;;;24.20;44.51;101554.81;5097266;28;20110;-57
2022/08/30 09:46:53;;;;;;;16.83;4.70;;;;;;;24.00;44.68;101554.22;5095895;28;20569;-57
2022/08/30 09:49:42;;;;;;;12.05;4.35;;;;;;;24.29;44.04;101549.94;5105028;28;20123;-57
2022/08/30 09:52:41;;;;;;;11.93;4.22;;;;;;;23.91;44.42;101550.94;5106988;28;20046;-57
2022/08/30 09:55:35;;;;;;;20.15;4.50;;;;;;;24.26;44.83;101543.06;5088139;28;20036;-57
2022/08/30 09:58:34;;;;;;;14.10;3.97;;;;;;;24.27;43.68;101552.03;5102818;28;20044;-57
2022/08/30 10:01:13;;;;;;;13.32;4.45;;;;;;;25.47;41.56;101542.31;5085933;28;20100;-57
2022/08/30 10:03:50;;;;;;;12.50;4.05;;;;;;;25.71;40.64;101551.31;5114198;28;20127;-57
2022/08/30 10:06:48;;;;;;;16.77;4.22;;;;;;;25.85;40.44;101549.19;5100183;28;20072;-57
2022/08/30 10:09:34;;;;;;;12.95;3.97;;;;;;;25.53;41.01;101544.06;5089597;28;20040;-57
2022/08/30 10:12:30;;;;;;;19.45;9.40;;;;;;;25.39;41.91;101543.47;5104586;28;20052;-58
2022/08/30 10:15:24;;;;;;;14.95;7.50;;;;;;;25.25;42.16;101540.16;5091093;28;20043;-57
2022/08/30 10:18:20;;;;;;;15.25;5.00;;;;;;;24.98;42.81;101538.88;5098445;28;20054;-56
2022/08/30 10:21:15;;;;;;;19.90;5.78;;;;;;;25.09;42.23;101538.06;5094201;28;20048;-57
2022/08/30 10:24:06;;;;;;;17.10;5.63;;;;;;;25.25;41.95;101542.00;4975565;28;20158;-57
2022/08/30 10:26:50;;;;;;;18.25;4.43;;;;;;;24.90;42.64;101548.97;5100870;28;20135;-57
2022/08/30 10:29:24;;;;;;;20.23;4.75;;;;;;;25.01;42.92;101547.38;5109577;28;20377;-57
2022/08/30 10:32:01;;;;;;;15.68;4.65;;;;;;;24.83;42.86;101539.25;5103865;28;20501;-57
2022/08/30 10:34:34;;;;;;;11.48;4.03;;;;;;;24.65;43.65;101548.25;5105890;28;20044;-57
2022/08/30 10:37:07;;;;;;;15.50;4.15;;;;;;;24.71;43.66;101542.75;5107911;28;20039;-57
2022/08/30 10:39:41;;;;;;;14.88;4.80;;;;;;;25.00;43.51;101543.00;5113502;28;20465;-57
2022/08/30 10:42:17;;;;;;;15.43;3.85;;;;;;;25.02;42.99;101542.75;5104579;28;20047;-57
2022/08/30 10:44:49;;;;;;;15.73;3.45;;;;;;;25.43;41.64;101546.53;5112597;28;20048;-57
2022/08/30 10:47:42;;;;;;;12.57;4.07;;;;;;;25.61;41.41;101545.63;5113272;28;20048;-57
2022/08/30 10:50:15;;;;;;;20.52;4.28;;;;;;;25.97;40.98;101550.00;5114159;28;20116;-57
2022/08/30 10:52:53;;;;;;;18.77;4.57;;;;;;;25.93;40.88;101546.13;5114391;28;20046;-57
2022/08/30 10:55:43;;;;;;;17.77;4.95;;;;;;;26.12;40.45;101546.81;5098573;28;20051;-57
2022/08/30 10:58:14;;;;;;;11.93;3.92;;;;;;;25.96;40.41;101542.94;5101378;28;20153;-57
2022/08/30 11:01:12;;;;;;;21.40;4.00;;;;;;;25.91;40.38;101547.41;5111862;28;20117;-57
2022/08/30 11:04:15;;;;;;;11.68;3.70;;;;;;;25.78;40.27;101537.59;5107985;28;20032;-57
2022/08/30 11:07:22;;;;;;;14.27;3.90;;;;;;;25.58;40.76;101536.06;5114054;28;20509;-57
2022/08/30 11:10:29;;;;;;;17.52;3.95;;;;;;;25.74;40.80;101534.53;5110787;28;20058;-57
2022/08/30 11:13:20;;;;;;;18.08;3.70;;;;;;;25.91;40.58;101539.25;5063663;28;20475;-57
2022/08/30 11:16:05;;;;;;;12.57;3.67;;;;;;;26.09;40.52;101539.16;5071485;28;20047;-57
2022/08/30 11:18:43;;;;;;;14.25;4.10;;;;;;;25.89;40.54;101535.91;5081436;28;20051;-59
2022/08/30 11:21:32;;;;;;;13.07;4.30;;;;;;;25.91;40.84;101533.81;5063084;28;20068;-59
2022/08/30 11:26:50;;;;;;;18.63;5.95;;;;;;;26.23;41.20;101531.53;5091864;28;20130;-60
2022/08/30 11:29:40;;;;;;;14.38;4.47;;;;;;;26.44;39.89;101541.78;5070898;28;20032;-60
2022/08/30 11:34:55;;;;;;;31.65;9.38;;;;;;;26.27;39.39;101532.72;5110080;27;20354;-59
2022/08/30 11:37:39;;;;;;;21.35;5.47;;;;;;;26.11;39.61;101534.28;5120784;27;20054;-60
2022/08/30 11:40:09;;;;;;;25.15;6.03;;;;;;;25.98;40.37;101526.41;5122994;28;20071;-60
2022/08/30 11:42:41;;;;;;;22.23;6.82;;;;;;;26.06;40.75;101531.47;5120348;27;20092;-60